sensor_id;sensor_type;location;lat;lon;timestamp;temperature;humidity
39277;DHT22;63149;48.086;-1.606;2023-03-13T06:02:07;12.60;99.90
39277;DHT22;63149;48.086;-1.606;2023-03-13T06:04:34;12.60;99.90
39277;DHT22;63149;48.086;-1.606;2023-03-13T06:07:01;12.60;99.90
39277;DHT22;63149;48.086;-1.606;2023-03-13T06:09:28;12.60;99.90
39277;DHT22;63149;48.086;-1.606;2023-03-13T06:11:55;12.60;99.90
39277;DHT22;63149;48.086;-1.606;2023-03-13T06:14:22;12.60;99.90
39277;DHT22;63149;48.086;-1.606;2023-03-13T06:16:49;12.60;99.90
39277;DHT22;63149;48.086;-1.606;2023-03-13T06:19:17;12.60;99.90
39277;DHT22;63149;48.086;-1.606;2023-03-13T06:21:45;12.60;99.90
39277;DHT22;63149;48.086;-1.606;2023-03-13T06:24:11;12.60;99.90
39277;DHT22;63149;48.086;-1.606;2023-03-13T06:26:38;12.60;99.90
39277;DHT22;63149;48.086;-1.606;2023-03-13T06:29:05;12.60;99.90
39277;DHT22;63149;48.086;-1.606;2023-03-13T06:31:32;12.50;99.90
39277;DHT22;63149;48.086;-1.606;2023-03-13T06:33:59;12.60;99.90
39277;DHT22;63149;48.086;-1.606;2023-03-13T06:36:27;12.50;99.90
39277;DHT22;63149;48.086;-1.606;2023-03-13T06:38:54;12.50;99.90
39277;DHT22;63149;48.086;-1.606;2023-03-13T06:41:21;12.50;99.90
39277;DHT22;63149;48.086;-1.606;2023-03-13T06:43:49;12.60;99.90
39277;DHT22;63149;48.086;-1.606;2023-03-13T06:46:17;12.60;99.90
39277;DHT22;63149;48.086;-1.606;2023-03-13T06:48:45;12.50;99.90
39277;DHT22;63149;48.086;-1.606;2023-03-13T06:51:12;12.60;99.90
39277;DHT22;63149;48.086;-1.606;2023-03-13T06:53:41;12.50;99.90
39277;DHT22;63149;48.086;-1.606;2023-03-13T06:56:09;12.50;99.90
39277;DHT22;63149;48.086;-1.606;2023-03-13T06:58:36;12.60;99.90
39277;DHT22;63149;48.086;-1.606;2023-03-13T07:01:05;12.50;99.90
39277;DHT22;63149;48.086;-1.606;2023-03-13T07:03:32;12.50;99.90
39277;DHT22;63149;48.086;-1.606;2023-03-13T07:05:59;12.50;99.90
39277;DHT22;63149;48.086;-1.606;2023-03-13T07:08:27;12.50;99.90
39277;DHT22;63149;48.086;-1.606;2023-03-13T07:10:58;12.50;99.90
39277;DHT22;63149;48.086;-1.606;2023-03-13T07:13:25;12.50;99.90
39277;DHT22;63149;48.086;-1.606;2023-03-13T07:15:52;12.50;99.90
39277;DHT22;63149;48.086;-1.606;2023-03-13T07:18:19;12.50;99.90
39277;DHT22;63149;48.086;-1.606;2023-03-13T07:20:51;12.50;99.90
39277;DHT22;63149;48.086;-1.606;2023-03-13T07:23:18;12.50;99.90
39277;DHT22;63149;48.086;-1.606;2023-03-13T07:25:52;12.50;99.90
39277;DHT22;63149;48.086;-1.606;2023-03-13T07:28:20;12.50;99.90
39277;DHT22;63149;48.086;-1.606;2023-03-13T07:30:47;12.50;99.90
39277;DHT22;63149;48.086;-1.606;2023-03-13T07:33:15;12.50;99.90
39277;DHT22;63149;48.086;-1.606;2023-03-13T07:35:46;12.50;99.90
39277;DHT22;63149;48.086;-1.606;2023-03-13T07:38:14;12.50;99.90
39277;DHT22;63149;48.086;-1.606;2023-03-13T07:40:47;12.50;99.90
39277;DHT22;63149;48.086;-1.606;2023-03-13T07:43:15;12.60;99.90
39277;DHT22;63149;48.086;-1.606;2023-03-13T07:45:51;12.60;99.90
39277;DHT22;63149;48.086;-1.606;2023-03-13T07:48:18;12.60;99.90
39277;DHT22;63149;48.086;-1.606;2023-03-13T07:50:45;12.70;99.90
39277;DHT22;63149;48.086;-1.606;2023-03-13T07:53:12;12.70;99.90
39277;DHT22;63149;48.086;-1.606;2023-03-13T07:55:54;12.80;99.90
39277;DHT22;63149;48.086;-1.606;2023-03-13T07:58:21;12.80;99.90
39277;DHT22;63149;48.086;-1.606;2023-03-13T08:00:50;12.80;99.90
39277;DHT22;63149;48.086;-1.606;2023-03-13T08:03:17;12.90;99.90
39277;DHT22;63149;48.086;-1.606;2023-03-13T08:05:44;12.80;99.90
39277;DHT22;63149;48.086;-1.606;2023-03-13T08:08:11;12.90;99.90
39277;DHT22;63149;48.086;-1.606;2023-03-13T08:10:38;12.90;99.90
39277;DHT22;63149;48.086;-1.606;2023-03-13T08:13:05;13.00;99.90
39277;DHT22;63149;48.086;-1.606;2023-03-13T08:15:32;13.00;99.90
39277;DHT22;63149;48.086;-1.606;2023-03-13T08:18:00;13.00;99.90
39277;DHT22;63149;48.086;-1.606;2023-03-13T08:20:27;13.00;99.90
39277;DHT22;63149;48.086;-1.606;2023-03-13T08:22:55;13.10;99.90
39277;DHT22;63149;48.086;-1.606;2023-03-13T08:25:22;13.10;99.90
39277;DHT22;63149;48.086;-1.606;2023-03-13T08:27:49;13.10;99.90
39277;DHT22;63149;48.086;-1.606;2023-03-13T08:30:17;13.20;99.90
39277;DHT22;63149;48.086;-1.606;2023-03-13T08:32:44;13.20;99.90
39277;DHT22;63149;48.086;-1.606;2023-03-13T08:35:12;13.30;99.90
39277;DHT22;63149;48.086;-1.606;2023-03-13T08:37:39;13.30;99.90
39277;DHT22;63149;48.086;-1.606;2023-03-13T08:40:07;13.40;99.90
39277;DHT22;63149;48.086;-1.606;2023-03-13T08:42:37;13.40;99.90
39277;DHT22;63149;48.086;-1.606;2023-03-13T08:45:06;13.50;99.90
39277;DHT22;63149;48.086;-1.606;2023-03-13T08:47:33;13.50;99.90
39277;DHT22;63149;48.086;-1.606;2023-03-13T08:50:00;13.60;99.90
39277;DHT22;63149;48.086;-1.606;2023-03-13T08:52:28;13.70;99.90
39277;DHT22;63149;48.086;-1.606;2023-03-13T08:54:55;13.80;99.90
39277;DHT22;63149;48.086;-1.606;2023-03-13T08:57:22;13.90;99.90
39277;DHT22;63149;48.086;-1.606;2023-03-13T08:59:49;13.90;99.90
39277;DHT22;63149;48.086;-1.606;2023-03-13T09:02:16;14.00;99.90
39277;DHT22;63149;48.086;-1.606;2023-03-13T09:04:46;14.00;99.90
39277;DHT22;63149;48.086;-1.606;2023-03-13T09:07:13;14.30;99.90
39277;DHT22;63149;48.086;-1.606;2023-03-13T09:09:42;14.50;99.90
39277;DHT22;63149;48.086;-1.606;2023-03-13T09:12:10;14.60;99.90
39277;DHT22;63149;48.086;-1.606;2023-03-13T09:14:37;15.00;99.90
39277;DHT22;63149;48.086;-1.606;2023-03-13T09:17:04;15.20;99.90
39277;DHT22;63149;48.086;-1.606;2023-03-13T09:19:31;15.40;99.90
39277;DHT22;63149;48.086;-1.606;2023-03-13T09:21:58;15.60;99.90
39277;DHT22;63149;48.086;-1.606;2023-03-13T09:24:25;15.50;99.90
39277;DHT22;63149;48.086;-1.606;2023-03-13T09:26:54;15.40;99.90
39277;DHT22;63149;48.086;-1.606;2023-03-13T09:29:20;15.70;99.90
39277;DHT22;63149;48.086;-1.606;2023-03-13T09:31:47;15.70;99.90
39277;DHT22;63149;48.086;-1.606;2023-03-13T09:34:14;16.00;99.90
39277;DHT22;63149;48.086;-1.606;2023-03-13T09:36:41;15.80;99.90
39277;DHT22;63149;48.086;-1.606;2023-03-13T09:39:08;15.70;99.90
39277;DHT22;63149;48.086;-1.606;2023-03-13T09:41:39;15.60;99.90
39277;DHT22;63149;48.086;-1.606;2023-03-13T09:44:14;15.70;99.90
39277;DHT22;63149;48.086;-1.606;2023-03-13T09:46:48;15.80;99.90
39277;DHT22;63149;48.086;-1.606;2023-03-13T09:49:29;16.00;99.90
39277;DHT22;63149;48.086;-1.606;2023-03-13T09:52:02;15.90;99.90
39277;DHT22;63149;48.086;-1.606;2023-03-13T09:54:35;15.80;99.90
39277;DHT22;63149;48.086;-1.606;2023-03-13T09:57:09;15.70;99.90
39277;DHT22;63149;48.086;-1.606;2023-03-13T09:59:44;15.90;99.90
39277;DHT22;63149;48.086;-1.606;2023-03-13T10:02:28;15.70;99.90
39277;DHT22;63149;48.086;-1.606;2023-03-13T10:05:09;15.80;99.90
39277;DHT22;63149;48.086;-1.606;2023-03-13T10:07:37;16.10;99.90
39277;DHT22;63149;48.086;-1.606;2023-03-13T10:10:12;16.50;99.90
39277;DHT22;63149;48.086;-1.606;2023-03-13T10:12:43;16.40;99.90
39277;DHT22;63149;48.086;-1.606;2023-03-13T10:15:36;16.10;99.90
39277;DHT22;63149;48.086;-1.606;2023-03-13T10:18:16;15.90;99.90
39277;DHT22;63149;48.086;-1.606;2023-03-13T10:20:47;15.90;99.90
39277;DHT22;63149;48.086;-1.606;2023-03-13T10:23:18;15.70;99.90
39277;DHT22;63149;48.086;-1.606;2023-03-13T10:25:46;15.80;99.90
39277;DHT22;63149;48.086;-1.606;2023-03-13T10:28:15;16.40;99.90
39277;DHT22;63149;48.086;-1.606;2023-03-13T10:30:47;16.70;99.90
39277;DHT22;63149;48.086;-1.606;2023-03-13T10:33:22;17.40;99.90
39277;DHT22;63149;48.086;-1.606;2023-03-13T10:36:00;18.00;99.90
39277;DHT22;63149;48.086;-1.606;2023-03-13T10:38:28;18.30;99.90
39277;DHT22;63149;48.086;-1.606;2023-03-13T10:40:59;18.50;99.90
39277;DHT22;63149;48.086;-1.606;2023-03-13T10:43:28;18.70;99.90
39277;DHT22;63149;48.086;-1.606;2023-03-13T10:45:57;18.60;99.90
39277;DHT22;63149;48.086;-1.606;2023-03-13T10:48:29;18.80;99.90
39277;DHT22;63149;48.086;-1.606;2023-03-13T10:51:01;19.10;99.90
39277;DHT22;63149;48.086;-1.606;2023-03-13T10:53:32;18.80;99.90
39277;DHT22;63149;48.086;-1.606;2023-03-13T10:56:04;18.50;99.90
39277;DHT22;63149;48.086;-1.606;2023-03-13T10:58:40;18.40;99.90
39277;DHT22;63149;48.086;-1.606;2023-03-13T11:01:17;18.10;99.90
39277;DHT22;63149;48.086;-1.606;2023-03-13T11:03:48;17.70;99.90
39277;DHT22;63149;48.086;-1.606;2023-03-13T11:06:30;17.30;99.90
39277;DHT22;63149;48.086;-1.606;2023-03-13T11:09:09;17.00;99.90
39277;DHT22;63149;48.086;-1.606;2023-03-13T11:11:46;17.70;99.90
39277;DHT22;63149;48.086;-1.606;2023-03-13T11:14:15;18.10;99.90
39277;DHT22;63149;48.086;-1.606;2023-03-13T11:16:48;18.00;99.90
39277;DHT22;63149;48.086;-1.606;2023-03-13T11:19:46;18.10;99.90
39277;DHT22;63149;48.086;-1.606;2023-03-13T11:22:33;17.90;99.90
39277;DHT22;63149;48.086;-1.606;2023-03-13T11:25:15;17.90;99.90
39277;DHT22;63149;48.086;-1.606;2023-03-13T11:27:50;17.70;99.90
39277;DHT22;63149;48.086;-1.606;2023-03-13T11:30:40;17.70;99.90
39277;DHT22;63149;48.086;-1.606;2023-03-13T11:33:19;18.30;99.90
39277;DHT22;63149;48.086;-1.606;2023-03-13T11:35:51;18.80;99.90
39277;DHT22;63149;48.086;-1.606;2023-03-13T11:38:26;19.20;99.90
39277;DHT22;63149;48.086;-1.606;2023-03-13T11:41:01;19.70;99.90
39277;DHT22;63149;48.086;-1.606;2023-03-13T11:43:49;19.90;99.90
39277;DHT22;63149;48.086;-1.606;2023-03-13T11:46:37;20.00;99.90
39277;DHT22;63149;48.086;-1.606;2023-03-13T11:49:19;20.30;99.90
39277;DHT22;63149;48.086;-1.606;2023-03-13T11:51:59;20.10;99.90
39277;DHT22;63149;48.086;-1.606;2023-03-13T11:54:49;20.50;99.90
39277;DHT22;63149;48.086;-1.606;2023-03-13T11:57:24;19.90;99.90
39277;DHT22;63149;48.086;-1.606;2023-03-13T12:00:16;20.00;99.90
39277;DHT22;63149;48.086;-1.606;2023-03-13T12:02:48;20.30;99.90
39277;DHT22;63149;48.086;-1.606;2023-03-13T12:05:19;20.50;99.90
39277;DHT22;63149;48.086;-1.606;2023-03-13T12:07:50;20.70;99.90
39277;DHT22;63149;48.086;-1.606;2023-03-13T12:10:22;20.60;99.90
39277;DHT22;63149;48.086;-1.606;2023-03-13T12:12:58;20.20;99.90
39277;DHT22;63149;48.086;-1.606;2023-03-13T12:15:28;20.50;99.90
39277;DHT22;63149;48.086;-1.606;2023-03-13T12:18:00;20.50;99.90
39277;DHT22;63149;48.086;-1.606;2023-03-13T12:20:33;20.20;99.90
39277;DHT22;63149;48.086;-1.606;2023-03-13T12:23:16;19.70;99.90
39277;DHT22;63149;48.086;-1.606;2023-03-13T12:25:46;19.30;99.90
39277;DHT22;63149;48.086;-1.606;2023-03-13T12:28:31;19.30;99.90
39277;DHT22;63149;48.086;-1.606;2023-03-13T12:31:06;18.90;99.90
39277;DHT22;63149;48.086;-1.606;2023-03-13T12:33:41;18.90;99.90
39277;DHT22;63149;48.086;-1.606;2023-03-13T12:36:12;19.10;99.90
39277;DHT22;63149;48.086;-1.606;2023-03-13T12:38:45;18.80;99.90
39277;DHT22;63149;48.086;-1.606;2023-03-13T12:41:18;18.60;99.90
39277;DHT22;63149;48.086;-1.606;2023-03-13T12:43:51;18.70;99.90
39277;DHT22;63149;48.086;-1.606;2023-03-13T12:46:32;18.90;99.90
39277;DHT22;63149;48.086;-1.606;2023-03-13T12:49:26;19.20;99.90
39277;DHT22;63149;48.086;-1.606;2023-03-13T12:55:17;19.30;99.90
39277;DHT22;63149;48.086;-1.606;2023-03-13T13:00:53;19.30;99.90
39277;DHT22;63149;48.086;-1.606;2023-03-13T13:03:28;18.90;99.90
39277;DHT22;63149;48.086;-1.606;2023-03-13T13:06:02;18.40;99.90
39277;DHT22;63149;48.086;-1.606;2023-03-13T13:08:34;17.90;99.90
39277;DHT22;63149;48.086;-1.606;2023-03-13T13:17:27;18.00;99.90
39277;DHT22;63149;48.086;-1.606;2023-03-13T13:19:56;18.10;99.90
39277;DHT22;63149;48.086;-1.606;2023-03-13T13:22:47;18.00;99.90
39277;DHT22;63149;48.086;-1.606;2023-03-13T13:25:30;17.60;99.90
39277;DHT22;63149;48.086;-1.606;2023-03-13T13:28:21;17.60;99.90
39277;DHT22;63149;48.086;-1.606;2023-03-13T13:30:51;17.40;99.90
39277;DHT22;63149;48.086;-1.606;2023-03-13T13:33:40;17.30;99.90
39277;DHT22;63149;48.086;-1.606;2023-03-13T13:36:38;17.10;99.90
39277;DHT22;63149;48.086;-1.606;2023-03-13T13:39:25;16.90;99.90
39277;DHT22;63149;48.086;-1.606;2023-03-13T13:41:57;16.70;99.90
39277;DHT22;63149;48.086;-1.606;2023-03-13T13:44:26;16.50;99.90
39277;DHT22;63149;48.086;-1.606;2023-03-13T13:46:56;16.40;99.90
39277;DHT22;63149;48.086;-1.606;2023-03-13T13:55:01;16.20;99.90
39277;DHT22;63149;48.086;-1.606;2023-03-13T13:57:30;16.10;99.90
39277;DHT22;63149;48.086;-1.606;2023-03-13T14:00:03;16.10;99.90
39277;DHT22;63149;48.086;-1.606;2023-03-13T14:02:34;16.10;99.90
39277;DHT22;63149;48.086;-1.606;2023-03-13T14:05:06;16.10;99.90
39277;DHT22;63149;48.086;-1.606;2023-03-13T14:07:45;16.20;99.90
39277;DHT22;63149;48.086;-1.606;2023-03-13T14:10:30;16.20;99.90
39277;DHT22;63149;48.086;-1.606;2023-03-13T14:13:01;16.20;99.90
39277;DHT22;63149;48.086;-1.606;2023-03-13T14:15:28;16.20;99.90
39277;DHT22;63149;48.086;-1.606;2023-03-13T14:17:58;16.10;99.90
39277;DHT22;63149;48.086;-1.606;2023-03-13T14:20:30;16.10;99.90
39277;DHT22;63149;48.086;-1.606;2023-03-13T14:22:59;16.00;99.90
39277;DHT22;63149;48.086;-1.606;2023-03-13T14:25:28;15.80;99.90
39277;DHT22;63149;48.086;-1.606;2023-03-13T14:28:18;15.80;99.90
39277;DHT22;63149;48.086;-1.606;2023-03-13T14:30:46;15.80;99.90
39277;DHT22;63149;48.086;-1.606;2023-03-13T14:33:13;15.80;99.90
39277;DHT22;63149;48.086;-1.606;2023-03-13T14:35:42;15.70;99.90
39277;DHT22;63149;48.086;-1.606;2023-03-13T14:38:15;15.60;99.90
39277;DHT22;63149;48.086;-1.606;2023-03-13T14:40:43;15.60;99.90
39277;DHT22;63149;48.086;-1.606;2023-03-13T14:43:19;15.60;99.90
39277;DHT22;63149;48.086;-1.606;2023-03-13T14:45:47;15.60;99.90
39277;DHT22;63149;48.086;-1.606;2023-03-13T14:48:20;15.50;99.90
39277;DHT22;63149;48.086;-1.606;2023-03-13T14:50:59;15.50;99.90
39277;DHT22;63149;48.086;-1.606;2023-03-13T14:53:27;15.50;99.90
39277;DHT22;63149;48.086;-1.606;2023-03-13T14:56:10;15.40;99.90
39277;DHT22;63149;48.086;-1.606;2023-03-13T14:58:37;15.40;99.90
39277;DHT22;63149;48.086;-1.606;2023-03-13T15:01:13;15.30;99.90
39277;DHT22;63149;48.086;-1.606;2023-03-13T15:03:43;15.30;99.90
39277;DHT22;63149;48.086;-1.606;2023-03-13T15:06:20;15.20;99.90
39277;DHT22;63149;48.086;-1.606;2023-03-13T15:08:49;15.20;99.90
39277;DHT22;63149;48.086;-1.606;2023-03-13T15:11:33;15.10;99.90
39277;DHT22;63149;48.086;-1.606;2023-03-13T15:14:01;15.10;99.90
39277;DHT22;63149;48.086;-1.606;2023-03-13T15:16:28;15.10;99.90
39277;DHT22;63149;48.086;-1.606;2023-03-13T15:18:55;15.00;99.90
39277;DHT22;63149;48.086;-1.606;2023-03-13T15:21:26;14.90;99.90
39277;DHT22;63149;48.086;-1.606;2023-03-13T15:23:57;14.80;99.90
39277;DHT22;63149;48.086;-1.606;2023-03-13T15:26:25;14.80;99.90
39277;DHT22;63149;48.086;-1.606;2023-03-13T15:28:52;14.70;99.90
39277;DHT22;63149;48.086;-1.606;2023-03-13T15:31:24;14.60;99.90
39277;DHT22;63149;48.086;-1.606;2023-03-13T15:33:55;14.60;99.90
39277;DHT22;63149;48.086;-1.606;2023-03-13T15:36:24;14.40;99.90
39277;DHT22;63149;48.086;-1.606;2023-03-13T15:38:51;14.30;99.90
39277;DHT22;63149;48.086;-1.606;2023-03-13T15:41:18;14.30;99.90
39277;DHT22;63149;48.086;-1.606;2023-03-13T15:43:45;14.30;99.90
39277;DHT22;63149;48.086;-1.606;2023-03-13T15:46:12;14.30;99.90
39277;DHT22;63149;48.086;-1.606;2023-03-13T15:48:40;14.30;99.90
39277;DHT22;63149;48.086;-1.606;2023-03-13T15:51:10;14.20;99.90
39277;DHT22;63149;48.086;-1.606;2023-03-13T15:53:41;14.20;99.90
39277;DHT22;63149;48.086;-1.606;2023-03-13T15:56:13;14.10;99.90
39277;DHT22;63149;48.086;-1.606;2023-03-13T15:58:40;14.10;99.90
39277;DHT22;63149;48.086;-1.606;2023-03-13T16:01:09;14.20;99.90
39277;DHT22;63149;48.086;-1.606;2023-03-13T16:03:36;14.20;99.90
39277;DHT22;63149;48.086;-1.606;2023-03-13T16:06:11;14.30;99.90
39277;DHT22;63149;48.086;-1.606;2023-03-13T16:08:40;14.30;99.90
39277;DHT22;63149;48.086;-1.606;2023-03-13T16:11:08;14.30;99.90
39277;DHT22;63149;48.086;-1.606;2023-03-13T16:13:35;14.30;99.90
39277;DHT22;63149;48.086;-1.606;2023-03-13T16:16:10;14.30;99.90
39277;DHT22;63149;48.086;-1.606;2023-03-13T16:18:41;14.20;99.90
39277;DHT22;63149;48.086;-1.606;2023-03-13T16:21:19;14.20;99.90
39277;DHT22;63149;48.086;-1.606;2023-03-13T16:23:47;14.20;99.90
39277;DHT22;63149;48.086;-1.606;2023-03-13T16:26:17;14.20;99.90
39277;DHT22;63149;48.086;-1.606;2023-03-13T16:28:44;14.10;99.90
39277;DHT22;63149;48.086;-1.606;2023-03-13T16:31:17;14.00;99.90
39277;DHT22;63149;48.086;-1.606;2023-03-13T16:33:45;14.00;99.90
39277;DHT22;63149;48.086;-1.606;2023-03-13T16:36:16;14.00;99.90
39277;DHT22;63149;48.086;-1.606;2023-03-13T16:38:43;13.90;99.90
39277;DHT22;63149;48.086;-1.606;2023-03-13T16:41:16;13.90;99.90
39277;DHT22;63149;48.086;-1.606;2023-03-13T16:43:44;13.80;99.90
39277;DHT22;63149;48.086;-1.606;2023-03-13T16:46:16;13.80;99.90
39277;DHT22;63149;48.086;-1.606;2023-03-13T16:48:43;13.70;99.90
39277;DHT22;63149;48.086;-1.606;2023-03-13T16:51:15;13.60;99.90
39277;DHT22;63149;48.086;-1.606;2023-03-13T16:53:44;13.50;99.90
39277;DHT22;63149;48.086;-1.606;2023-03-13T16:56:21;13.50;99.90
39277;DHT22;63149;48.086;-1.606;2023-03-13T16:58:49;13.40;99.90
39277;DHT22;63149;48.086;-1.606;2023-03-13T17:01:16;13.30;99.90
39277;DHT22;63149;48.086;-1.606;2023-03-13T17:03:43;13.20;99.90
39277;DHT22;63149;48.086;-1.606;2023-03-13T17:06:14;13.20;99.90
39277;DHT22;63149;48.086;-1.606;2023-03-13T17:08:42;13.10;99.90
39277;DHT22;63149;48.086;-1.606;2023-03-13T17:11:11;12.90;99.90
39277;DHT22;63149;48.086;-1.606;2023-03-13T17:13:42;12.70;99.90
39277;DHT22;63149;48.086;-1.606;2023-03-13T17:16:12;12.40;99.90
39277;DHT22;63149;48.086;-1.606;2023-03-13T17:18:40;12.10;99.90
39277;DHT22;63149;48.086;-1.606;2023-03-13T17:21:11;12.00;99.90
39277;DHT22;63149;48.086;-1.606;2023-03-13T17:23:39;12.00;99.90
39277;DHT22;63149;48.086;-1.606;2023-03-13T17:26:19;11.90;99.90
39277;DHT22;63149;48.086;-1.606;2023-03-13T17:28:49;11.90;99.90
39277;DHT22;63149;48.086;-1.606;2023-03-13T17:31:17;11.90;99.90
39277;DHT22;63149;48.086;-1.606;2023-03-13T17:33:45;11.90;99.90
39277;DHT22;63149;48.086;-1.606;2023-03-13T17:36:14;11.80;99.90
39277;DHT22;63149;48.086;-1.606;2023-03-13T17:38:42;11.80;99.90
39277;DHT22;63149;48.086;-1.606;2023-03-13T17:41:10;11.80;99.90
39277;DHT22;63149;48.086;-1.606;2023-03-13T17:43:38;11.70;99.90
39277;DHT22;63149;48.086;-1.606;2023-03-13T17:46:13;11.70;99.90
39277;DHT22;63149;48.086;-1.606;2023-03-13T17:48:40;11.70;99.90
39277;DHT22;63149;48.086;-1.606;2023-03-13T17:51:16;11.70;99.90
39277;DHT22;63149;48.086;-1.606;2023-03-13T17:53:44;11.70;99.90
39277;DHT22;63149;48.086;-1.606;2023-03-13T17:56:12;11.60;99.90
39277;DHT22;63149;48.086;-1.606;2023-03-13T17:58:40;11.60;99.90
39277;DHT22;63149;48.086;-1.606;2023-03-13T18:01:11;11.60;99.90
39277;DHT22;63149;48.086;-1.606;2023-03-13T18:03:39;11.60;99.90
39277;DHT22;63149;48.086;-1.606;2023-03-13T18:06:19;11.60;99.90
39277;DHT22;63149;48.086;-1.606;2023-03-13T18:08:47;11.60;99.90
39277;DHT22;63149;48.086;-1.606;2023-03-13T18:11:15;11.50;99.90
39277;DHT22;63149;48.086;-1.606;2023-03-13T18:13:42;11.60;99.90
39277;DHT22;63149;48.086;-1.606;2023-03-13T18:16:24;11.50;99.90
39277;DHT22;63149;48.086;-1.606;2023-03-13T18:18:51;11.50;99.90
39277;DHT22;63149;48.086;-1.606;2023-03-13T18:21:19;11.50;99.90
39277;DHT22;63149;48.086;-1.606;2023-03-13T18:23:45;11.50;99.90
39277;DHT22;63149;48.086;-1.606;2023-03-13T18:26:19;11.50;99.90
39277;DHT22;63149;48.086;-1.606;2023-03-13T18:28:46;11.50;99.90
39277;DHT22;63149;48.086;-1.606;2023-03-13T18:31:13;11.50;99.90
39277;DHT22;63149;48.086;-1.606;2023-03-13T18:33:41;11.50;99.90
39277;DHT22;63149;48.086;-1.606;2023-03-13T18:36:14;11.50;99.90
39277;DHT22;63149;48.086;-1.606;2023-03-13T18:38:42;11.50;99.90
39277;DHT22;63149;48.086;-1.606;2023-03-13T18:41:09;11.50;99.90
39277;DHT22;63149;48.086;-1.606;2023-03-13T18:43:36;11.50;99.90
39277;DHT22;63149;48.086;-1.606;2023-03-13T18:46:04;11.50;99.90
39277;DHT22;63149;48.086;-1.606;2023-03-13T18:48:31;11.50;99.90
39277;DHT22;63149;48.086;-1.606;2023-03-13T18:50:59;11.50;99.90
39277;DHT22;63149;48.086;-1.606;2023-03-13T18:53:26;11.50;99.90
39277;DHT22;63149;48.086;-1.606;2023-03-13T18:55:53;11.50;99.90
39277;DHT22;63149;48.086;-1.606;2023-03-13T18:58:20;11.50;99.90
39277;DHT22;63149;48.086;-1.606;2023-03-13T19:00:47;11.50;99.90
39277;DHT22;63149;48.086;-1.606;2023-03-13T19:03:14;11.50;99.90
39277;DHT22;63149;48.086;-1.606;2023-03-13T19:05:44;11.50;99.90
39277;DHT22;63149;48.086;-1.606;2023-03-13T19:08:13;11.50;99.90
39277;DHT22;63149;48.086;-1.606;2023-03-13T19:10:40;11.50;99.90
39277;DHT22;63149;48.086;-1.606;2023-03-13T19:13:07;11.50;99.90
39277;DHT22;63149;48.086;-1.606;2023-03-13T19:15:34;11.50;99.90
39277;DHT22;63149;48.086;-1.606;2023-03-13T19:18:02;11.40;99.90
39277;DHT22;63149;48.086;-1.606;2023-03-13T19:20:29;11.30;99.90
39277;DHT22;63149;48.086;-1.606;2023-03-13T19:22:56;11.20;99.90
39277;DHT22;63149;48.086;-1.606;2023-03-13T19:25:26;11.20;99.90
39277;DHT22;63149;48.086;-1.606;2023-03-13T19:27:54;11.10;99.90
39277;DHT22;63149;48.086;-1.606;2023-03-13T19:30:22;11.00;99.90
39277;DHT22;63149;48.086;-1.606;2023-03-13T19:32:50;11.00;99.90
39277;DHT22;63149;48.086;-1.606;2023-03-13T19:35:17;11.00;99.90
39277;DHT22;63149;48.086;-1.606;2023-03-13T19:37:46;11.00;99.90
39277;DHT22;63149;48.086;-1.606;2023-03-13T19:40:17;11.00;99.90
39277;DHT22;63149;48.086;-1.606;2023-03-13T19:42:46;11.00;99.90
39277;DHT22;63149;48.086;-1.606;2023-03-13T19:45:13;11.00;99.90
39277;DHT22;63149;48.086;-1.606;2023-03-13T19:47:41;11.00;99.90
39277;DHT22;63149;48.086;-1.606;2023-03-13T19:50:15;11.10;99.90
39277;DHT22;63149;48.086;-1.606;2023-03-13T19:52:42;11.10;99.90
39277;DHT22;63149;48.086;-1.606;2023-03-13T19:55:11;11.10;99.90
39277;DHT22;63149;48.086;-1.606;2023-03-13T19:57:38;11.10;99.90
39277;DHT22;63149;48.086;-1.606;2023-03-13T20:00:09;11.10;99.90
39277;DHT22;63149;48.086;-1.606;2023-03-13T20:02:38;11.10;99.90
39277;DHT22;63149;48.086;-1.606;2023-03-13T20:05:06;11.20;99.90
39277;DHT22;63149;48.086;-1.606;2023-03-13T20:07:33;11.10;99.90
39277;DHT22;63149;48.086;-1.606;2023-03-13T20:10:00;11.10;99.90
39277;DHT22;63149;48.086;-1.606;2023-03-13T20:12:27;11.10;99.90
39277;DHT22;63149;48.086;-1.606;2023-03-13T20:14:54;11.10;99.90
39277;DHT22;63149;48.086;-1.606;2023-03-13T20:17:23;11.10;99.90
39277;DHT22;63149;48.086;-1.606;2023-03-13T20:19:49;11.10;99.90
39277;DHT22;63149;48.086;-1.606;2023-03-13T20:22:16;11.00;99.90
39277;DHT22;63149;48.086;-1.606;2023-03-13T20:24:43;11.00;99.90
39277;DHT22;63149;48.086;-1.606;2023-03-13T20:27:10;11.10;99.90
39277;DHT22;63149;48.086;-1.606;2023-03-13T20:29:37;11.00;99.90
39277;DHT22;63149;48.086;-1.606;2023-03-13T20:32:05;11.10;99.90
39277;DHT22;63149;48.086;-1.606;2023-03-13T20:34:34;11.10;99.90
39277;DHT22;63149;48.086;-1.606;2023-03-13T20:37:01;11.10;99.90
39277;DHT22;63149;48.086;-1.606;2023-03-13T20:39:28;11.10;99.90
39277;DHT22;63149;48.086;-1.606;2023-03-13T20:41:55;11.20;99.90
39277;DHT22;63149;48.086;-1.606;2023-03-13T20:44:24;11.10;99.90
39277;DHT22;63149;48.086;-1.606;2023-03-13T20:46:51;11.10;99.90
39277;DHT22;63149;48.086;-1.606;2023-03-13T20:49:18;11.10;99.90
39277;DHT22;63149;48.086;-1.606;2023-03-13T20:51:46;11.10;99.90
39277;DHT22;63149;48.086;-1.606;2023-03-13T20:54:13;11.10;99.90
39277;DHT22;63149;48.086;-1.606;2023-03-13T20:56:40;11.10;99.90
39277;DHT22;63149;48.086;-1.606;2023-03-13T20:59:07;11.20;99.90
39277;DHT22;63149;48.086;-1.606;2023-03-13T21:01:34;11.20;99.90
39277;DHT22;63149;48.086;-1.606;2023-03-13T21:04:01;11.20;99.90
39277;DHT22;63149;48.086;-1.606;2023-03-13T21:06:28;11.20;99.90
39277;DHT22;63149;48.086;-1.606;2023-03-13T21:08:57;11.20;99.90
39277;DHT22;63149;48.086;-1.606;2023-03-13T21:11:24;11.20;99.90
39277;DHT22;63149;48.086;-1.606;2023-03-13T21:13:51;11.20;99.90
39277;DHT22;63149;48.086;-1.606;2023-03-13T21:16:18;11.20;99.90
39277;DHT22;63149;48.086;-1.606;2023-03-13T21:18:45;11.20;99.90
39277;DHT22;63149;48.086;-1.606;2023-03-13T21:21:14;11.20;99.90
39277;DHT22;63149;48.086;-1.606;2023-03-13T21:23:43;11.20;99.90
39277;DHT22;63149;48.086;-1.606;2023-03-13T21:26:12;11.20;99.90
39277;DHT22;63149;48.086;-1.606;2023-03-13T21:28:40;11.20;99.90
39277;DHT22;63149;48.086;-1.606;2023-03-13T21:31:08;11.10;99.90
39277;DHT22;63149;48.086;-1.606;2023-03-13T21:33:35;11.10;99.90
39277;DHT22;63149;48.086;-1.606;2023-03-13T21:36:03;11.10;99.90
39277;DHT22;63149;48.086;-1.606;2023-03-13T21:38:30;11.10;99.90
39277;DHT22;63149;48.086;-1.606;2023-03-13T21:40:56;11.10;99.90
39277;DHT22;63149;48.086;-1.606;2023-03-13T21:43:25;11.10;99.90
39277;DHT22;63149;48.086;-1.606;2023-03-13T21:45:55;11.10;99.90
39277;DHT22;63149;48.086;-1.606;2023-03-13T21:48:23;11.10;99.90
39277;DHT22;63149;48.086;-1.606;2023-03-13T21:50:51;11.10;99.90
39277;DHT22;63149;48.086;-1.606;2023-03-13T21:53:18;11.10;99.90
39277;DHT22;63149;48.086;-1.606;2023-03-13T21:55:48;11.10;99.90